Time;durP1;ratioP1;P1;durP2;ratioP2;P2;SDS_P1;SDS_P2;PMS_P1;PMS_P2;Temp;Humidity;BMP_temperature;BMP_pressure;BME280_temperature;BME280_humidity;BME280_pressure;Samples;Min_cycle;Max_cycle;Signal;HPM_P1;HPM_P2
2022/05/28 00:02:11;;;;;;;2.63;1.40;;;19.90;54.20;;;;;;5051652;28;20198;-74
2022/05/28 00:04:36;;;;;;;3.65;1.40;;;19.90;54.20;;;;;;5050886;28;20237;-74
2022/05/28 00:07:05;;;;;;;2.22;1.35;;;19.90;54.20;;;;;;5052015;28;20357;-72
2022/05/28 00:09:31;;;;;;;1.83;1.38;;;19.90;54.30;;;;;;5051112;28;20189;-72
2022/05/28 00:11:56;;;;;;;1.98;1.40;;;19.90;54.30;;;;;;5051547;28;20197;-72
2022/05/28 00:14:22;;;;;;;2.33;1.20;;;19.90;55.00;;;;;;5051850;28;20779;-72
2022/05/28 00:16:47;;;;;;;2.80;1.50;;;19.90;54.30;;;;;;5050623;28;20228;-72
2022/05/28 00:19:13;;;;;;;2.97;1.50;;;19.90;54.30;;;;;;5051675;28;20181;-72
2022/05/28 00:21:38;;;;;;;1.92;1.40;;;19.90;54.40;;;;;;5051473;28;20167;-72
2022/05/28 00:24:04;;;;;;;2.35;1.40;;;19.80;54.30;;;;;;5050966;28;20218;-72
2022/05/28 00:26:30;;;;;;;3.85;1.40;;;19.80;54.30;;;;;;5051622;28;20182;-72
2022/05/28 00:28:56;;;;;;;2.95;1.38;;;19.80;54.40;;;;;;5051221;28;20210;-72
2022/05/28 00:31:21;;;;;;;2.50;1.38;;;19.80;54.40;;;;;;5050813;28;20229;-73
2022/05/28 00:33:47;;;;;;;1.60;1.25;;;19.80;54.40;;;;;;5051309;28;20168;-73
2022/05/28 00:36:12;;;;;;;2.28;1.40;;;19.80;54.40;;;;;;5051620;28;20253;-74
2022/05/28 00:38:39;;;;;;;1.83;1.38;;;19.80;54.50;;;;;;5050676;28;20221;-74
2022/05/28 00:41:04;;;;;;;3.78;1.48;;;19.80;54.40;;;;;;5051554;28;20261;-72
2022/05/28 00:43:30;;;;;;;3.40;1.35;;;19.80;54.50;;;;;;5051229;28;20306;-73
2022/05/28 00:46:11;;;;;;;2.65;1.35;;;19.80;54.50;;;;;;5049076;28;20183;-72
2022/05/28 00:48:40;;;;;;;2.60;1.30;;;19.80;54.50;;;;;;5049614;28;20222;-72
2022/05/28 00:51:09;;;;;;;1.63;1.00;;;19.70;54.50;;;;;;5051332;28;20251;-71
2022/05/28 00:53:35;;;;;;;2.65;1.30;;;19.80;54.50;;;;;;5049230;28;20266;-72
2022/05/28 00:56:04;;;;;;;2.45;1.30;;;19.80;54.60;;;;;;5051163;28;20266;-72
2022/05/28 00:58:29;;;;;;;3.10;1.73;;;19.70;54.50;;;;;;5051327;28;20182;-74
2022/05/28 01:00:55;;;;;;;2.30;1.30;;;19.70;54.50;;;;;;5050095;28;20217;-73
2022/05/28 01:03:33;;;;;;;3.47;1.60;;;19.70;54.60;;;;;;5051344;28;20215;-73
2022/05/28 01:06:18;;;;;;;1.95;1.30;;;19.80;54.60;;;;;;5049129;28;20178;-73
2022/05/28 01:08:48;;;;;;;2.90;1.60;;;19.70;54.60;;;;;;5049540;28;20504;-73
2022/05/28 01:11:29;;;;;;;2.08;1.42;;;19.80;54.60;;;;;;5049839;28;20182;-72
2022/05/28 01:14:16;;;;;;;2.92;1.30;;;19.70;54.60;;;;;;5049163;28;20187;-72
2022/05/28 01:16:46;;;;;;;2.75;1.33;;;19.70;54.70;;;;;;5049592;28;20176;-73
2022/05/28 01:19:30;;;;;;;2.25;1.20;;;19.70;54.60;;;;;;5051093;28;20182;-72
2022/05/28 01:21:56;;;;;;;2.53;1.58;;;19.70;54.60;;;;;;5049905;28;20197;-72
2022/05/28 01:24:42;;;;;;;1.98;1.63;;;19.70;54.70;;;;;;5052809;28;20215;-72
2022/05/28 01:27:15;;;;;;;1.90;1.45;;;19.70;54.70;;;;;;5054196;28;20205;-72
2022/05/28 01:29:51;;;;;;;2.83;1.48;;;19.70;54.70;;;;;;5053058;28;20189;-73
2022/05/28 01:32:18;;;;;;;2.03;1.40;;;19.70;54.70;;;;;;5053301;28;20182;-73
2022/05/28 01:34:43;;;;;;;3.35;1.60;;;19.70;54.70;;;;;;5052482;28;20175;-73
2022/05/28 01:37:10;;;;;;;2.13;1.20;;;19.60;54.70;;;;;;5053421;28;20174;-74
2022/05/28 01:39:36;;;;;;;2.40;1.40;;;19.70;54.70;;;;;;5052872;28;20314;-73
2022/05/28 01:42:02;;;;;;;2.40;1.15;;;19.70;54.70;;;;;;5052671;28;20261;-73
2022/05/28 01:44:28;;;;;;;3.55;1.65;;;19.60;54.70;;;;;;5053145;28;20214;-73
2022/05/28 01:46:53;;;;;;;1.95;1.40;;;19.60;54.70;;;;;;5053060;28;20534;-73
2022/05/28 01:49:19;;;;;;;2.53;1.45;;;19.60;54.80;;;;;;5052833;28;20535;-73
2022/05/28 01:51:53;;;;;;;3.10;1.33;;;19.60;54.80;;;;;;5053182;28;20174;-71
2022/05/28 01:54:20;;;;;;;1.73;1.30;;;19.60;54.80;;;;;;5054618;28;20313;-73
2022/05/28 01:56:46;;;;;;;2.95;1.40;;;19.60;54.80;;;;;;5052026;28;20207;-72
2022/05/28 01:59:13;;;;;;;1.63;1.52;;;19.60;55.50;;;;;;5054273;28;20187;-72
2022/05/28 02:01:39;;;;;;;3.67;1.40;;;19.60;54.90;;;;;;5052548;28;20672;-74
2022/05/28 02:04:04;;;;;;;1.45;1.15;;;19.60;54.90;;;;;;5053544;28;20210;-74
2022/05/28 02:06:31;;;;;;;1.73;1.40;;;19.60;54.90;;;;;;5054390;28;20191;-72
2022/05/28 02:08:57;;;;;;;4.05;1.73;;;19.60;54.90;;;;;;5053470;28;20209;-72
2022/05/28 02:11:26;;;;;;;2.38;1.20;;;19.60;55.50;;;;;;5052313;28;20536;-73
2022/05/28 02:14:02;;;;;;;3.05;1.40;;;19.60;55.00;;;;;;5053837;28;20285;-72
2022/05/28 02:16:59;;;;;;;1.95;1.48;;;19.60;54.90;;;;;;5051881;28;20174;-73
2022/05/28 02:19:44;;;;;;;2.95;1.63;;;19.50;54.90;;;;;;5045370;28;20615;-72
2022/05/28 02:22:19;;;;;;;4.22;1.83;;;19.50;54.90;;;;;;5052807;28;20191;-72
2022/05/28 02:24:49;;;;;;;4.28;1.52;;;19.50;54.90;;;;;;5053685;28;20285;-72
2022/05/28 02:27:15;;;;;;;2.47;1.52;;;19.60;55.00;;;;;;5053510;28;20183;-72
2022/05/28 02:29:41;;;;;;;4.55;1.50;;;19.50;55.00;;;;;;5053065;28;20244;-73
2022/05/28 02:32:20;;;;;;;3.22;1.50;;;19.50;54.90;;;;;;5052372;28;20171;-73
2022/05/28 02:34:46;;;;;;;3.40;1.23;;;19.50;55.00;;;;;;5053280;28;20212;-74
2022/05/28 02:37:15;;;;;;;2.22;1.23;;;19.50;55.00;;;;;;5053528;28;20186;-73
2022/05/28 02:39:41;;;;;;;1.63;1.25;;;19.50;55.00;;;;;;5054144;28;20198;-74
2022/05/28 02:42:07;;;;;;;3.85;1.83;;;19.50;55.00;;;;;;5054594;28;20197;-73
2022/05/28 02:44:32;;;;;;;3.45;1.85;;;19.50;55.00;;;;;;5053584;28;20297;-73
2022/05/28 02:46:58;;;;;;;2.90;1.42;;;19.50;55.00;;;;;;5053893;28;20185;-73
2022/05/28 02:49:25;;;;;;;2.67;1.65;;;19.50;55.10;;;;;;5054051;28;20171;-73
2022/05/28 02:51:51;;;;;;;1.65;1.20;;;19.50;55.00;;;;;;5053290;28;20258;-72
2022/05/28 02:54:17;;;;;;;1.40;1.00;;;19.50;55.10;;;;;;5054047;28;20175;-72
2022/05/28 02:56:42;;;;;;;3.13;1.40;;;19.50;55.00;;;;;;5053656;28;20183;-73
2022/05/28 02:59:08;;;;;;;2.53;1.20;;;19.50;55.10;;;;;;5053281;28;20221;-74
2022/05/28 03:01:33;;;;;;;2.85;1.50;;;19.40;55.10;;;;;;5053684;28;20223;-74
2022/05/28 03:03:59;;;;;;;3.55;1.83;;;19.40;55.10;;;;;;5053523;28;20203;-74
2022/05/28 03:06:25;;;;;;;2.53;1.52;;;19.40;55.10;;;;;;5053204;28;20207;-73
2022/05/28 03:08:51;;;;;;;3.80;1.73;;;19.50;55.10;;;;;;5052316;28;20171;-73
2022/05/28 03:11:16;;;;;;;1.42;0.93;;;19.40;55.10;;;;;;5053803;28;20650;-72
2022/05/28 03:13:42;;;;;;;2.05;1.40;;;19.40;55.10;;;;;;5052583;28;20175;-73
2022/05/28 03:16:07;;;;;;;2.95;1.33;;;19.40;55.10;;;;;;5053695;28;20183;-73
2022/05/28 03:18:33;;;;;;;2.78;1.38;;;19.40;55.10;;;;;;5053513;28;20547;-72
2022/05/28 03:20:59;;;;;;;1.70;1.02;;;19.40;55.20;;;;;;5052353;28;20540;-73
2022/05/28 03:23:24;;;;;;;4.40;1.65;;;19.40;55.20;;;;;;5053504;28;20207;-73
2022/05/28 03:25:50;;;;;;;3.20;1.35;;;19.40;55.30;;;;;;5053089;28;20183;-72
2022/05/28 03:28:15;;;;;;;3.15;1.48;;;19.40;55.20;;;;;;5052656;28;20186;-73
2022/05/28 03:30:41;;;;;;;2.08;1.42;;;19.40;55.30;;;;;;5053027;28;20168;-73
2022/05/28 03:33:06;;;;;;;2.53;1.20;;;19.40;55.20;;;;;;5053167;28;20182;-73
2022/05/28 03:35:32;;;;;;;2.95;1.63;;;19.40;55.20;;;;;;5052757;28;20199;-74
2022/05/28 03:37:57;;;;;;;2.92;1.52;;;19.40;55.30;;;;;;5053054;28;20266;-73
2022/05/28 03:40:23;;;;;;;3.17;1.25;;;19.40;55.30;;;;;;5052628;28;20628;-74
2022/05/28 03:42:48;;;;;;;2.25;1.40;;;19.40;55.30;;;;;;5052467;28;20195;-72
2022/05/28 03:45:14;;;;;;;2.47;1.73;;;19.40;55.30;;;;;;5052892;28;20183;-72
2022/05/28 03:47:39;;;;;;;2.88;1.40;;;19.30;55.30;;;;;;5051585;28;20484;-72
2022/05/28 03:50:05;;;;;;;1.38;1.20;;;19.40;55.30;;;;;;5053107;28;20190;-72
2022/05/28 03:52:31;;;;;;;3.35;1.42;;;19.40;55.40;;;;;;5053048;28;20187;-72
2022/05/28 03:54:56;;;;;;;3.83;1.13;;;19.30;55.30;;;;;;5052013;28;20171;-72
2022/05/28 03:57:24;;;;;;;3.45;1.50;;;19.30;55.30;;;;;;5052930;28;20187;-73
2022/05/28 03:59:50;;;;;;;3.28;1.50;;;19.30;55.30;;;;;;5052269;28;20242;-74
2022/05/28 04:02:15;;;;;;;2.30;1.42;;;19.40;56.00;;;;;;5051927;28;20172;-74
2022/05/28 04:04:41;;;;;;;2.28;1.20;;;19.30;55.30;;;;;;5052599;28;20662;-74
2022/05/28 04:07:07;;;;;;;3.42;1.63;;;19.30;55.30;;;;;;5052596;28;20597;-73
2022/05/28 04:09:32;;;;;;;2.17;1.38;;;19.30;55.30;;;;;;5050632;28;20179;-73
2022/05/28 04:11:58;;;;;;;2.40;1.33;;;19.30;55.30;;;;;;5052284;28;20190;-72
2022/05/28 04:14:23;;;;;;;3.90;1.60;;;19.30;55.40;;;;;;5052513;28;20214;-73
2022/05/28 04:16:49;;;;;;;3.10;1.52;;;19.30;55.40;;;;;;5051543;28;20175;-73
2022/05/28 04:19:14;;;;;;;2.17;1.50;;;19.30;55.30;;;;;;5052633;28;20187;-72
2022/05/28 04:21:40;;;;;;;2.78;1.35;;;19.30;55.30;;;;;;5052329;28;20186;-72
2022/05/28 04:24:06;;;;;;;3.72;1.52;;;19.40;55.30;;;;;;5051713;28;20223;-72
2022/05/28 04:26:32;;;;;;;2.10;1.10;;;19.30;55.30;;;;;;5052346;28;20171;-72
2022/05/28 04:28:57;;;;;;;2.42;1.20;;;19.40;55.30;;;;;;5052097;28;20166;-73
2022/05/28 04:31:24;;;;;;;3.67;1.40;;;19.40;55.30;;;;;;5051514;28;20179;-73
2022/05/28 04:33:49;;;;;;;3.05;1.38;;;19.40;55.30;;;;;;5052269;28;20187;-73
2022/05/28 04:36:15;;;;;;;3.47;1.50;;;19.40;55.30;;;;;;5052193;28;20167;-73
2022/05/28 04:38:41;;;;;;;3.22;1.33;;;19.40;55.30;;;;;;5051364;28;20192;-73
2022/05/28 04:41:07;;;;;;;2.22;1.45;;;19.40;55.30;;;;;;5052278;28;20171;-73
2022/05/28 04:43:32;;;;;;;2.10;1.20;;;19.40;55.20;;;;;;5052025;28;20236;-73
2022/05/28 04:45:59;;;;;;;2.00;1.30;;;19.40;55.30;;;;;;5051110;28;20265;-73
2022/05/28 04:48:24;;;;;;;2.17;1.17;;;19.40;55.20;;;;;;5052343;28;20330;-73
2022/05/28 04:50:50;;;;;;;2.05;1.33;;;19.40;55.30;;;;;;5051343;28;20341;-72
2022/05/28 04:53:15;;;;;;;3.25;1.23;;;19.40;55.30;;;;;;5052238;28;20210;-72
2022/05/28 04:55:41;;;;;;;1.60;1.15;;;19.40;55.30;;;;;;5051748;28;20550;-72
2022/05/28 04:58:06;;;;;;;2.45;1.42;;;19.40;55.30;;;;;;5051510;28;20703;-73
2022/05/28 05:00:33;;;;;;;4.13;1.75;;;19.40;55.20;;;;;;5055869;28;20709;-74
2022/05/28 05:02:58;;;;;;;1.73;1.20;;;19.40;55.20;;;;;;5055823;28;20269;-74
2022/05/28 05:05:24;;;;;;;1.35;1.00;;;19.40;55.20;;;;;;5055512;28;20578;-74
2022/05/28 05:07:49;;;;;;;3.90;1.30;;;19.40;55.30;;;;;;5055941;28;20197;-73
2022/05/28 05:10:15;;;;;;;3.22;1.30;;;19.40;55.30;;;;;;5055914;28;20178;-73
2022/05/28 05:12:40;;;;;;;2.85;1.15;;;19.40;55.30;;;;;;5054980;28;20249;-72
2022/05/28 05:15:06;;;;;;;2.08;1.02;;;19.40;55.90;;;;;;5055860;28;20649;-73
2022/05/28 05:17:32;;;;;;;1.88;0.95;;;19.40;55.20;;;;;;5055816;28;20208;-73
2022/05/28 05:19:57;;;;;;;2.53;1.30;;;19.40;55.90;;;;;;5054939;28;20199;-73
2022/05/28 05:22:23;;;;;;;2.67;1.13;;;19.40;55.30;;;;;;5055606;28;20203;-73
2022/05/28 05:24:51;;;;;;;2.05;1.10;;;19.40;55.30;;;;;;5055341;28;20594;-72
2022/05/28 05:27:16;;;;;;;1.52;1.05;;;19.40;55.30;;;;;;5053667;28;20171;-72
2022/05/28 05:29:42;;;;;;;2.10;1.00;;;19.40;55.30;;;;;;5055240;28;20481;-73
2022/05/28 05:32:08;;;;;;;1.88;1.10;;;19.40;55.30;;;;;;5055853;28;20182;-73
2022/05/28 05:34:33;;;;;;;1.80;1.10;;;19.40;55.30;;;;;;5053964;28;20183;-74
2022/05/28 05:36:58;;;;;;;1.95;0.90;;;19.40;55.30;;;;;;5055707;28;20178;-73
2022/05/28 05:39:24;;;;;;;2.92;1.52;;;19.40;55.30;;;;;;5055860;28;20175;-74
2022/05/28 05:41:49;;;;;;;2.22;1.02;;;19.40;55.30;;;;;;5054606;28;20179;-73
2022/05/28 05:44:16;;;;;;;2.38;1.38;;;19.40;55.20;;;;;;5055537;28;20614;-73
2022/05/28 05:46:42;;;;;;;1.88;1.27;;;19.40;55.30;;;;;;5055216;28;20176;-73
2022/05/28 05:49:07;;;;;;;2.47;1.30;;;19.40;55.30;;;;;;5055114;28;20258;-73
2022/05/28 05:51:33;;;;;;;2.55;1.20;;;19.40;55.20;;;;;;5055465;28;20604;-73
2022/05/28 05:53:59;;;;;;;1.83;0.90;;;19.40;55.30;;;;;;5053896;28;20681;-72
2022/05/28 05:56:24;;;;;;;2.70;0.80;;;19.40;55.30;;;;;;5054765;28;20173;-73
2022/05/28 05:58:50;;;;;;;1.20;0.90;;;19.40;55.20;;;;;;5054975;28;20183;-75
2022/05/28 06:01:15;;;;;;;1.75;1.33;;;19.40;55.20;;;;;;5054447;28;20226;-74
2022/05/28 06:03:44;;;;;;;2.20;1.38;;;19.40;55.30;;;;;;5054926;28;20352;-75
2022/05/28 06:06:11;;;;;;;2.03;0.98;;;19.40;55.20;;;;;;5055336;28;20192;-74
2022/05/28 06:08:36;;;;;;;1.25;1.00;;;19.40;55.20;;;;;;5054097;28;20305;-72
2022/05/28 06:11:02;;;;;;;1.95;1.15;;;19.40;55.20;;;;;;5054868;28;20191;-73
2022/05/28 06:13:27;;;;;;;1.30;0.90;;;19.40;55.20;;;;;;5054942;28;20538;-73
2022/05/28 06:15:53;;;;;;;2.30;1.40;;;19.40;55.20;;;;;;5054259;28;20175;-72
2022/05/28 06:18:18;;;;;;;1.10;1.00;;;19.50;55.30;;;;;;5055121;28;20175;-73
2022/05/28 06:20:44;;;;;;;1.73;1.00;;;19.50;55.30;;;;;;5054558;28;20167;-72
2022/05/28 06:23:10;;;;;;;1.88;1.30;;;19.50;55.20;;;;;;5054292;28;20211;-73
2022/05/28 06:25:37;;;;;;;1.83;1.02;;;19.50;55.20;;;;;;5054518;28;20167;-72
2022/05/28 06:28:02;;;;;;;1.25;0.98;;;19.50;55.10;;;;;;5054612;28;20182;-72
2022/05/28 06:30:28;;;;;;;1.92;1.20;;;19.50;55.10;;;;;;5054148;28;20658;-74
2022/05/28 06:32:53;;;;;;;1.00;0.88;;;19.50;55.10;;;;;;5054342;28;20232;-72
2022/05/28 06:35:19;;;;;;;0.93;0.82;;;19.50;55.10;;;;;;5054624;28;20686;-74
2022/05/28 06:37:44;;;;;;;1.08;0.82;;;19.50;55.10;;;;;;5053701;28;20171;-73
2022/05/28 06:40:10;;;;;;;2.47;1.10;;;19.50;55.10;;;;;;5054576;28;20179;-74
2022/05/28 06:42:35;;;;;;;2.97;1.20;;;19.50;55.10;;;;;;5054178;28;20187;-73
2022/05/28 06:45:01;;;;;;;2.20;0.95;;;19.60;55.00;;;;;;5053910;28;20183;-73
2022/05/28 06:47:27;;;;;;;2.20;1.00;;;19.50;55.00;;;;;;5054323;28;20229;-73
2022/05/28 06:52:53;;;;;;;2.50;1.02;;;19.50;55.20;;;;;;5011906;28;20299;-73
2022/05/28 06:55:19;;;;;;;0.93;0.82;;;19.60;55.20;;;;;;5045268;28;20310;-72
2022/05/28 06:57:44;;;;;;;1.15;0.90;;;19.50;55.10;;;;;;5052945;28;20592;-73
2022/05/28 07:00:10;;;;;;;5.03;1.10;;;19.50;55.10;;;;;;5053891;28;20226;-74
2022/05/28 07:02:35;;;;;;;1.70;1.10;;;19.60;55.10;;;;;;5053685;28;20175;-75
2022/05/28 07:05:01;;;;;;;1.77;0.90;;;19.60;54.90;;;;;;5053066;28;20702;-73
2022/05/28 07:07:26;;;;;;;1.95;0.88;;;19.50;54.30;;;;;;5053735;28;20191;-73
2022/05/28 07:09:52;;;;;;;2.28;1.10;;;19.50;54.50;;;;;;5053753;28;20225;-71
2022/05/28 07:12:17;;;;;;;7.35;1.30;;;19.50;54.60;;;;;;5053197;28;20225;-72
2022/05/28 07:14:43;;;;;;;3.72;1.15;;;19.60;54.70;;;;;;5053487;28;20175;-72
2022/05/28 07:17:08;;;;;;;8.82;1.73;;;19.60;54.60;;;;;;5053738;28;20539;-72
2022/05/28 07:19:34;;;;;;;8.70;1.67;;;19.60;54.40;;;;;;5052960;28;20642;-72
2022/05/28 07:21:59;;;;;;;1.50;0.80;;;19.60;54.50;;;;;;5052548;28;20661;-73
2022/05/28 07:24:25;;;;;;;5.22;1.42;;;19.60;54.50;;;;;;5053382;28;20203;-72
2022/05/28 07:26:53;;;;;;;4.85;1.25;;;19.60;54.50;;;;;;5052290;28;20182;-73
2022/05/28 07:29:20;;;;;;;3.17;1.10;;;19.70;54.40;;;;;;5053525;28;20206;-74
2022/05/28 07:31:45;;;;;;;7.82;1.67;;;19.70;54.20;;;;;;5053594;28;20179;-74
2022/05/28 07:34:11;;;;;;;5.63;1.30;;;19.70;54.10;;;;;;5053146;28;20178;-73
2022/05/28 07:36:37;;;;;;;2.28;0.85;;;19.70;54.10;;;;;;5053627;28;20669;-73
2022/05/28 07:39:02;;;;;;;11.32;1.42;;;19.70;54.10;;;;;;5053958;28;20205;-73
2022/05/28 07:41:28;;;;;;;4.80;1.33;;;19.70;54.20;;;;;;5052909;28;20225;-75
2022/05/28 07:43:54;;;;;;;7.22;1.17;;;19.70;54.20;;;;;;5053300;28;20210;-75
2022/05/28 07:46:22;;;;;;;5.80;1.25;;;19.70;54.20;;;;;;5053808;28;20182;-73
2022/05/28 07:48:47;;;;;;;3.42;1.35;;;19.70;54.10;;;;;;5052759;28;20530;-74
2022/05/28 07:51:13;;;;;;;4.28;1.40;;;19.80;54.00;;;;;;5053463;28;20653;-74
2022/05/28 07:53:38;;;;;;;3.80;1.30;;;19.80;54.00;;;;;;5052670;28;20248;-73
2022/05/28 07:56:04;;;;;;;2.42;0.90;;;19.80;54.00;;;;;;5053898;28;20179;-72
2022/05/28 07:58:30;;;;;;;2.72;1.33;;;19.70;54.10;;;;;;5053620;28;20179;-72
2022/05/28 08:00:56;;;;;;;3.35;1.10;;;19.70;54.20;;;;;;5052309;28;20597;-74
2022/05/28 08:03:21;;;;;;;2.72;1.00;;;19.70;54.20;;;;;;5053264;28;20301;-74
2022/05/28 08:05:49;;;;;;;7.43;1.67;;;19.70;54.20;;;;;;5052937;28;20250;-72
2022/05/28 08:08:14;;;;;;;3.15;1.02;;;19.60;54.20;;;;;;5052726;28;20179;-72
2022/05/28 08:10:40;;;;;;;3.92;1.52;;;19.60;54.30;;;;;;5053068;28;20178;-72
2022/05/28 08:13:11;;;;;;;3.75;1.20;;;19.60;54.20;;;;;;5053281;28;20167;-72
2022/05/28 08:15:38;;;;;;;4.88;1.30;;;19.60;54.20;;;;;;5052220;28;20190;-71
2022/05/28 08:18:03;;;;;;;3.00;1.02;;;19.60;54.20;;;;;;5052883;28;20713;-70
2022/05/28 08:23:13;;;;;;;4.10;1.70;;;19.60;54.40;;;;;;5052166;28;20264;-74
2022/05/28 08:25:39;;;;;;;4.30;1.40;;;19.60;54.50;;;;;;5052652;28;20175;-75
2022/05/28 08:28:06;;;;;;;3.00;1.20;;;19.70;54.30;;;;;;5052948;28;20206;-73
2022/05/28 08:30:32;;;;;;;3.10;1.13;;;19.80;54.20;;;;;;5052161;28;20538;-71
2022/05/28 08:32:57;;;;;;;4.88;1.58;;;19.80;54.70;;;;;;5051916;28;20703;-73
2022/05/28 08:35:24;;;;;;;3.13;1.10;;;19.90;54.00;;;;;;5052627;28;20668;-72
2022/05/28 08:37:49;;;;;;;4.93;1.23;;;19.90;54.00;;;;;;5052033;28;20503;-74
2022/05/28 08:40:15;;;;;;;4.68;1.10;;;19.90;54.00;;;;;;5053018;28;20181;-74
2022/05/28 08:42:40;;;;;;;3.13;1.40;;;20.00;54.00;;;;;;5052415;28;20190;-73
2022/05/28 08:45:06;;;;;;;8.55;1.80;;;20.00;54.00;;;;;;5052154;28;20171;-72
2022/05/28 08:47:40;;;;;;;3.50;1.55;;;20.00;54.00;;;;;;5051554;28;20607;-71
2022/05/28 08:50:07;;;;;;;3.88;1.55;;;19.90;54.00;;;;;;5050973;28;20190;-70
2022/05/28 08:53:25;;;;;;;4.50;1.10;;;19.90;54.10;;;;;;5051615;28;20549;-70
2022/05/28 08:55:53;;;;;;;3.95;1.35;;;19.80;54.20;;;;;;5050277;28;20676;-69
2022/05/28 08:58:21;;;;;;;3.70;1.55;;;19.90;54.20;;;;;;5050686;28;20229;-72
2022/05/28 09:00:49;;;;;;;6.85;1.45;;;20.00;54.00;;;;;;5050713;28;20582;-73
2022/05/28 09:03:20;;;;;;;3.40;1.17;;;20.10;54.00;;;;;;5052625;28;20206;-72
2022/05/28 09:06:06;;;;;;;5.25;1.40;;;20.10;53.80;;;;;;5050687;28;20186;-72
2022/05/28 09:08:39;;;;;;;7.72;1.50;;;20.10;53.70;;;;;;5051422;28;20227;-72
2022/05/28 09:11:17;;;;;;;4.07;1.25;;;20.00;53.80;;;;;;5051786;28;20175;-71
2022/05/28 09:13:44;;;;;;;3.65;1.05;;;20.00;53.90;;;;;;5051059;28;20650;-70
2022/05/28 09:16:36;;;;;;;4.38;1.35;;;20.00;54.00;;;;;;5052427;28;20183;-70
2022/05/28 09:19:05;;;;;;;3.67;1.33;;;20.00;54.00;;;;;;5048800;28;20191;-70
2022/05/28 09:21:31;;;;;;;3.13;1.40;;;20.10;53.80;;;;;;5051727;28;20215;-70
2022/05/28 09:24:03;;;;;;;3.15;1.00;;;20.00;53.80;;;;;;5052011;28;20658;-69
2022/05/28 09:26:44;;;;;;;2.42;1.10;;;20.10;53.60;;;;;;5050280;28;20226;-71
2022/05/28 09:29:42;;;;;;;2.65;1.00;;;20.00;53.60;;;;;;5051444;28;20221;-69
2022/05/28 09:32:13;;;;;;;3.40;1.15;;;20.00;53.80;;;;;;5048455;28;20270;-70
2022/05/28 09:35:00;;;;;;;4.88;1.52;;;20.10;53.70;;;;;;5051053;28;20278;-74
2022/05/28 09:37:42;;;;;;;6.57;1.88;;;20.20;53.50;;;;;;5052473;28;20183;-73
2022/05/28 09:40:21;;;;;;;4.00;1.55;;;20.10;53.60;;;;;;5050615;28;20186;-73
2022/05/28 09:42:59;;;;;;;4.72;1.38;;;20.10;54.00;;;;;;5050778;28;20213;-72
2022/05/28 09:45:29;;;;;;;4.65;1.65;;;20.10;54.20;;;;;;5053221;28;20254;-71
2022/05/28 09:47:54;;;;;;;4.65;1.20;;;20.10;54.20;;;;;;5053148;28;20183;-71
2022/05/28 09:50:26;;;;;;;5.03;1.52;;;20.20;54.10;;;;;;5055739;28;20264;-72
2022/05/28 09:56:10;;;;;;;4.18;1.02;;;20.30;53.80;;;;;;5055451;28;20174;-70
2022/05/28 09:58:38;;;;;;;4.18;1.30;;;20.30;54.00;;;;;;5052340;28;20221;-72
2022/05/28 10:01:06;;;;;;;2.63;1.30;;;20.20;54.20;;;;;;5054654;28;20237;-73
2022/05/28 10:06:20;;;;;;;3.97;1.45;;;20.10;54.40;;;;;;5055531;28;20198;-72
2022/05/28 10:08:46;;;;;;;3.85;1.15;;;20.20;54.40;;;;;;5054485;28;20197;-72
2022/05/28 10:11:15;;;;;;;3.63;1.10;;;20.30;54.10;;;;;;5054101;28;20170;-72
2022/05/28 10:13:42;;;;;;;3.75;1.23;;;20.40;54.00;;;;;;5055261;28;20206;-72
2022/05/28 10:16:08;;;;;;;1.55;1.10;;;20.50;53.90;;;;;;5054626;28;20713;-70
2022/05/28 10:18:37;;;;;;;2.10;1.35;;;20.40;53.90;;;;;;5055238;28;20262;-71
2022/05/28 10:21:11;;;;;;;4.82;1.23;;;20.40;54.20;;;;;;5054132;28;20171;-70
2022/05/28 10:23:38;;;;;;;4.85;1.42;;;20.40;54.20;;;;;;5052843;28;20268;-70
2022/05/28 10:26:04;;;;;;;2.85;1.20;;;20.50;54.20;;;;;;5055051;28;20661;-71
2022/05/28 10:28:44;;;;;;;2.60;1.10;;;20.40;54.20;;;;;;5054615;28;20190;-72
2022/05/28 10:31:26;;;;;;;2.50;1.30;;;20.40;54.20;;;;;;5054092;28;20194;-74
2022/05/28 10:33:51;;;;;;;6.00;1.13;;;20.40;54.30;;;;;;5054821;28;20187;-74
2022/05/28 10:36:17;;;;;;;2.42;0.85;;;20.40;54.40;;;;;;5053304;28;20224;-73
2022/05/28 10:38:43;;;;;;;2.13;0.93;;;20.50;54.30;;;;;;5054794;28;20263;-74
2022/05/28 10:41:20;;;;;;;3.25;1.02;;;20.50;53.90;;;;;;5053665;28;20254;-72
2022/05/28 10:43:46;;;;;;;3.78;1.20;;;20.50;53.80;;;;;;5053644;28;20698;-70
2022/05/28 10:46:12;;;;;;;6.15;1.50;;;20.40;53.80;;;;;;5054753;28;20190;-70
2022/05/28 10:49:05;;;;;;;4.22;1.20;;;20.30;53.90;;;;;;5054660;28;20638;-71
2022/05/28 10:51:58;;;;;;;4.97;1.35;;;20.30;53.90;;;;;;5053952;28;20681;-70
2022/05/28 10:54:49;;;;;;;5.75;1.20;;;20.40;53.70;;;;;;5054633;28;20183;-70
2022/05/28 10:57:36;;;;;;;4.60;1.17;;;20.50;53.50;;;;;;5053046;28;20207;-71
2022/05/28 11:00:04;;;;;;;5.47;1.45;;;20.50;53.60;;;;;;5054323;28;20710;-72
2022/05/28 11:02:57;;;;;;;5.38;1.27;;;20.40;53.80;;;;;;5053481;28;20167;-72
2022/05/28 11:05:44;;;;;;;5.00;1.45;;;20.40;53.90;;;;;;5053950;28;20183;-72
2022/05/28 11:08:15;;;;;;;3.50;1.10;;;20.50;54.10;;;;;;5053499;28;20178;-72
2022/05/28 11:11:21;;;;;;;4.07;1.48;;;20.60;53.80;;;;;;5053362;28;20221;-70
2022/05/28 11:14:05;;;;;;;5.20;1.38;;;20.70;53.70;;;;;;5053165;28;20198;-71
2022/05/28 11:16:41;;;;;;;2.92;1.10;;;20.70;53.50;;;;;;5054445;28;20191;-71
2022/05/28 11:19:15;;;;;;;6.07;1.23;;;20.70;53.50;;;;;;5053486;28;20180;-72
2022/05/28 11:22:01;;;;;;;5.63;1.30;;;20.60;53.60;;;;;;5053607;28;20253;-70
2022/05/28 11:24:38;;;;;;;4.10;1.70;;;20.50;53.60;;;;;;5064057;28;20206;-70
2022/05/28 11:27:04;;;;;;;4.20;1.20;;;20.40;53.60;;;;;;5058232;28;20175;-71
2022/05/28 11:30:07;;;;;;;3.40;0.93;;;20.40;53.60;;;;;;5053979;28;20661;-72
2022/05/28 11:32:42;;;;;;;4.25;1.20;;;20.40;53.60;;;;;;5011493;28;20267;-73
2022/05/28 11:35:26;;;;;;;3.42;1.40;;;20.30;53.60;;;;;;4995656;28;20171;-73
2022/05/28 11:37:57;;;;;;;2.80;1.00;;;20.30;53.60;;;;;;5034264;28;20657;-73
2022/05/28 11:40:31;;;;;;;2.65;1.02;;;20.50;53.30;;;;;;5070904;28;20185;-73
2022/05/28 11:43:03;;;;;;;2.10;1.00;;;20.50;53.10;;;;;;5056814;28;20206;-72
2022/05/28 11:45:52;;;;;;;4.88;1.30;;;20.50;53.00;;;;;;5072557;28;20699;-72
2022/05/28 11:48:23;;;;;;;1.17;0.82;;;20.50;53.20;;;;;;5069471;28;20179;-72
2022/05/28 11:53:52;;;;;;;2.90;1.27;;;20.60;52.70;;;;;;5071732;28;20649;-72
2022/05/28 11:56:21;;;;;;;1.80;1.00;;;20.60;52.60;;;;;;5062851;28;20182;-72
2022/05/28 11:58:49;;;;;;;3.03;1.40;;;20.60;52.60;;;;;;5052180;28;20194;-72
2022/05/28 12:01:24;;;;;;;4.15;1.13;;;20.60;52.60;;;;;;5034833;28;20697;-74
2022/05/28 12:03:52;;;;;;;3.50;1.10;;;20.60;52.50;;;;;;5036068;28;20246;-74
2022/05/28 12:06:20;;;;;;;6.70;1.15;;;20.50;52.60;;;;;;5052357;28;20198;-74
2022/05/28 12:08:48;;;;;;;2.40;1.48;;;20.60;52.60;;;;;;5051979;28;20701;-73
2022/05/28 12:11:19;;;;;;;1.63;1.10;;;20.70;52.30;;;;;;5052050;28;20509;-72
2022/05/28 12:13:50;;;;;;;3.83;1.42;;;20.70;52.20;;;;;;5052625;28;20175;-71
2022/05/28 12:16:22;;;;;;;3.13;1.25;;;20.60;52.30;;;;;;5052145;28;20208;-70
2022/05/28 12:19:05;;;;;;;1.83;1.00;;;20.60;52.40;;;;;;5052853;28;20179;-70
2022/05/28 12:21:32;;;;;;;0.93;0.75;;;20.60;52.50;;;;;;5051126;28;20614;-71
2022/05/28 12:24:06;;;;;;;1.88;0.90;;;20.70;52.30;;;;;;5052627;28;20211;-70
2022/05/28 12:26:56;;;;;;;1.95;1.20;;;20.60;52.30;;;;;;5053171;28;20186;-71
2022/05/28 12:29:29;;;;;;;2.88;1.02;;;20.60;52.40;;;;;;5052855;28;20240;-72
2022/05/28 12:31:54;;;;;;;2.60;1.27;;;20.70;52.10;;;;;;5072812;28;20185;-72
2022/05/28 12:34:21;;;;;;;2.85;1.05;;;20.80;51.90;;;;;;5072742;28;20183;-74
2022/05/28 12:36:48;;;;;;;1.45;0.77;;;20.90;51.70;;;;;;5054159;28;20178;-75
2022/05/28 12:39:13;;;;;;;2.65;0.95;;;20.90;51.70;;;;;;5055214;28;20174;-74
2022/05/28 12:41:39;;;;;;;2.13;1.00;;;20.80;51.80;;;;;;5072764;28;20649;-72
2022/05/28 12:44:17;;;;;;;2.25;1.00;;;20.70;51.90;;;;;;5071055;28;20550;-72
2022/05/28 12:46:49;;;;;;;2.80;1.50;;;20.80;51.80;;;;;;5055094;28;20174;-72
2022/05/28 12:49:17;;;;;;;1.50;1.05;;;20.90;51.50;;;;;;5072214;28;20203;-72
2022/05/28 12:52:03;;;;;;;1.85;1.10;;;20.90;51.50;;;;;;5072580;28;20175;-72
2022/05/28 12:54:34;;;;;;;1.90;0.93;;;21.00;51.30;;;;;;5071817;28;20261;-72
2022/05/28 12:57:10;;;;;;;1.92;1.00;;;21.00;51.90;;;;;;5070825;28;20252;-72
2022/05/28 12:59:41;;;;;;;4.43;1.30;;;21.10;51.20;;;;;;5072381;28;20274;-75
2022/05/28 13:02:16;;;;;;;5.15;1.23;;;21.10;51.00;;;;;;5071675;28;20174;-73
2022/05/28 13:04:50;;;;;;;4.03;1.42;;;21.10;51.20;;;;;;5071596;28;20687;-72
2022/05/28 13:07:48;;;;;;;5.28;1.30;;;21.20;51.30;;;;;;5071738;28;20182;-70
2022/05/28 13:10:17;;;;;;;3.88;1.05;;;21.20;51.20;;;;;;5070627;28;20171;-70
2022/05/28 13:12:50;;;;;;;1.70;0.70;;;21.00;51.20;;;;;;5072455;28;20261;-74
2022/05/28 13:15:54;;;;;;;5.18;1.30;;;20.90;51.10;;;;;;5071565;28;20270;-73